sensor_id;sensor_type;location;lat;lon;timestamp;pressure;altitude;pressure_sealevel;temperature;humidity
15634;BME280;14654;48.898;8.308;2023-07-16T00:00:46;100133.97;;;21.00;100.00
15634;BME280;14654;48.898;8.308;2023-07-16T00:03:12;100135.84;;;20.98;100.00
15634;BME280;14654;48.898;8.308;2023-07-16T00:05:39;100124.91;;;20.90;100.00
15634;BME280;14654;48.898;8.308;2023-07-16T00:08:04;100131.94;;;20.90;100.00
15634;BME280;14654;48.898;8.308;2023-07-16T00:10:29;100117.44;;;20.82;100.00
15634;BME280;14654;48.898;8.308;2023-07-16T00:12:55;100108.00;;;20.78;100.00
15634;BME280;14654;48.898;8.308;2023-07-16T00:15:21;100108.19;;;20.75;100.00
15634;BME280;14654;48.898;8.308;2023-07-16T00:17:47;100105.59;;;20.74;100.00
15634;BME280;14654;48.898;8.308;2023-07-16T00:20:12;100062.66;;;20.73;100.00
15634;BME280;14654;48.898;8.308;2023-07-16T00:22:37;100076.84;;;20.70;100.00
15634;BME280;14654;48.898;8.308;2023-07-16T00:25:05;100091.78;;;20.70;100.00
15634;BME280;14654;48.898;8.308;2023-07-16T00:27:30;100106.69;;;20.69;100.00
15634;BME280;14654;48.898;8.308;2023-07-16T00:29:56;100087.53;;;20.67;100.00
15634;BME280;14654;48.898;8.308;2023-07-16T00:32:21;100107.63;;;20.68;100.00
15634;BME280;14654;48.898;8.308;2023-07-16T00:34:46;100105.00;;;20.68;100.00
15634;BME280;14654;48.898;8.308;2023-07-16T00:37:12;100109.31;;;20.69;100.00
15634;BME280;14654;48.898;8.308;2023-07-16T00:39:37;100109.31;;;20.69;100.00
15634;BME280;14654;48.898;8.308;2023-07-16T00:42:03;100135.72;;;20.68;100.00
15634;BME280;14654;48.898;8.308;2023-07-16T00:44:28;100146.50;;;20.63;100.00
15634;BME280;14654;48.898;8.308;2023-07-16T00:46:53;100157.31;;;20.57;100.00
15634;BME280;14654;48.898;8.308;2023-07-16T00:49:19;100145.41;;;20.50;100.00
15634;BME280;14654;48.898;8.308;2023-07-16T00:51:45;100140.56;;;20.42;100.00
15634;BME280;14654;48.898;8.308;2023-07-16T00:54:11;100141.81;;;20.35;100.00
15634;BME280;14654;48.898;8.308;2023-07-16T00:56:37;100149.97;;;20.30;100.00
15634;BME280;14654;48.898;8.308;2023-07-16T00:59:03;100149.66;;;20.19;100.00
15634;BME280;14654;48.898;8.308;2023-07-16T01:01:28;100158.94;;;20.08;100.00
15634;BME280;14654;48.898;8.308;2023-07-16T01:03:54;100161.88;;;20.02;100.00
15634;BME280;14654;48.898;8.308;2023-07-16T01:09:02;100178.94;;;19.93;100.00
15634;BME280;14654;48.898;8.308;2023-07-16T01:11:28;100155.56;;;19.89;100.00
15634;BME280;14654;48.898;8.308;2023-07-16T01:13:55;100135.59;;;19.85;100.00
15634;BME280;14654;48.898;8.308;2023-07-16T01:16:23;100135.59;;;19.85;100.00
15634;BME280;14654;48.898;8.308;2023-07-16T01:18:49;100152.19;;;19.85;100.00
15634;BME280;14654;48.898;8.308;2023-07-16T01:21:16;100124.16;;;19.86;100.00
15634;BME280;14654;48.898;8.308;2023-07-16T01:24:05;100145.88;;;19.89;100.00
15634;BME280;14654;48.898;8.308;2023-07-16T01:27:10;100135.28;;;19.91;100.00
15634;BME280;14654;48.898;8.308;2023-07-16T01:32:13;100145.66;;;19.94;100.00
15634;BME280;14654;48.898;8.308;2023-07-16T01:34:39;100142.88;;;19.97;100.00
15634;BME280;14654;48.898;8.308;2023-07-16T01:37:05;100139.31;;;19.98;100.00
15634;BME280;14654;48.898;8.308;2023-07-16T01:39:31;100151.59;;;19.98;100.00
15634;BME280;14654;48.898;8.308;2023-07-16T01:42:00;100155.06;;;19.98;100.00
15634;BME280;14654;48.898;8.308;2023-07-16T01:44:25;100162.19;;;19.96;100.00
15634;BME280;14654;48.898;8.308;2023-07-16T01:47:04;100165.72;;;19.95;100.00
15634;BME280;14654;48.898;8.308;2023-07-16T01:49:30;100174.78;;;19.89;100.00
15634;BME280;14654;48.898;8.308;2023-07-16T01:51:56;100174.00;;;19.87;100.00
15634;BME280;14654;48.898;8.308;2023-07-16T01:54:21;100178.53;;;19.84;100.00
15634;BME280;14654;48.898;8.308;2023-07-16T01:56:46;100194.41;;;19.80;100.00
15634;BME280;14654;48.898;8.308;2023-07-16T01:59:11;100185.75;;;19.78;100.00
15634;BME280;14654;48.898;8.308;2023-07-16T02:01:37;100182.34;;;19.76;100.00
15634;BME280;14654;48.898;8.308;2023-07-16T02:04:02;100185.06;;;19.75;100.00
15634;BME280;14654;48.898;8.308;2023-07-16T02:06:28;100188.63;;;19.74;100.00
15634;BME280;14654;48.898;8.308;2023-07-16T02:08:53;100189.69;;;19.70;100.00
15634;BME280;14654;48.898;8.308;2023-07-16T02:11:18;100202.03;;;19.68;100.00
15634;BME280;14654;48.898;8.308;2023-07-16T02:13:44;100195.16;;;19.65;100.00
15634;BME280;14654;48.898;8.308;2023-07-16T02:16:09;100196.88;;;19.66;100.00
15634;BME280;14654;48.898;8.308;2023-07-16T02:18:34;100206.69;;;19.62;100.00
15634;BME280;14654;48.898;8.308;2023-07-16T02:20:59;100212.75;;;19.63;100.00
15634;BME280;14654;48.898;8.308;2023-07-16T02:23:27;100218.88;;;19.63;100.00
15634;BME280;14654;48.898;8.308;2023-07-16T02:25:52;100212.75;;;19.63;100.00
15634;BME280;14654;48.898;8.308;2023-07-16T02:28:17;100207.50;;;19.63;100.00
15634;BME280;14654;48.898;8.308;2023-07-16T02:30:43;100220.63;;;19.63;100.00
15634;BME280;14654;48.898;8.308;2023-07-16T02:33:08;100231.13;;;19.63;100.00
15634;BME280;14654;48.898;8.308;2023-07-16T02:35:33;100236.53;;;19.60;100.00
15634;BME280;14654;48.898;8.308;2023-07-16T02:37:59;100231.38;;;19.58;100.00
15634;BME280;14654;48.898;8.308;2023-07-16T02:40:24;100232.44;;;19.54;100.00
15634;BME280;14654;48.898;8.308;2023-07-16T02:42:49;100231.63;;;19.52;100.00
15634;BME280;14654;48.898;8.308;2023-07-16T02:45:15;100231.81;;;19.49;100.00
15634;BME280;14654;48.898;8.308;2023-07-16T02:47:40;100230.31;;;19.43;100.00
15634;BME280;14654;48.898;8.308;2023-07-16T02:50:06;100238.34;;;19.40;100.00
15634;BME280;14654;48.898;8.308;2023-07-16T02:52:31;100237.78;;;19.33;100.00
15634;BME280;14654;48.898;8.308;2023-07-16T02:54:56;100234.41;;;19.30;100.00
15634;BME280;14654;48.898;8.308;2023-07-16T02:57:22;100232.81;;;19.27;100.00
15634;BME280;14654;48.898;8.308;2023-07-16T02:59:47;100237.56;;;19.19;100.00
15634;BME280;14654;48.898;8.308;2023-07-16T03:02:13;100256.28;;;19.11;100.00
15634;BME280;14654;48.898;8.308;2023-07-16T03:04:38;100241.59;;;19.07;100.00
15634;BME280;14654;48.898;8.308;2023-07-16T03:07:04;100238.19;;;19.05;100.00
15634;BME280;14654;48.898;8.308;2023-07-16T03:09:29;100242.00;;;18.98;100.00
15634;BME280;14654;48.898;8.308;2023-07-16T03:11:55;100236.91;;;18.95;100.00
15634;BME280;14654;48.898;8.308;2023-07-16T03:14:20;100235.28;;;18.91;100.00
15634;BME280;14654;48.898;8.308;2023-07-16T03:16:45;100230.25;;;18.86;100.00
15634;BME280;14654;48.898;8.308;2023-07-16T03:19:11;100237.41;;;18.82;100.00
15634;BME280;14654;48.898;8.308;2023-07-16T03:21:36;100237.41;;;18.82;100.00
15634;BME280;14654;48.898;8.308;2023-07-16T03:24:01;100239.97;;;18.84;100.00
15634;BME280;14654;48.898;8.308;2023-07-16T03:26:26;100238.19;;;18.84;100.00
15634;BME280;14654;48.898;8.308;2023-07-16T03:28:52;100242.44;;;18.87;100.00
15634;BME280;14654;48.898;8.308;2023-07-16T03:31:17;100240.66;;;18.87;100.00
15634;BME280;14654;48.898;8.308;2023-07-16T03:33:42;100262.50;;;18.88;100.00
15634;BME280;14654;48.898;8.308;2023-07-16T03:36:08;100265.91;;;18.90;100.00
15634;BME280;14654;48.898;8.308;2023-07-16T03:38:33;100265.84;;;18.92;100.00
15634;BME280;14654;48.898;8.308;2023-07-16T03:40:58;100279.75;;;18.94;100.00
15634;BME280;14654;48.898;8.308;2023-07-16T03:43:24;100280.66;;;18.93;100.00
15634;BME280;14654;48.898;8.308;2023-07-16T03:45:49;100279.66;;;18.97;100.00
15634;BME280;14654;48.898;8.308;2023-07-16T03:48:15;100289.22;;;18.98;100.00
15634;BME280;14654;48.898;8.308;2023-07-16T03:50:40;100296.13;;;18.99;100.00
15634;BME280;14654;48.898;8.308;2023-07-16T03:53:06;100292.59;;;19.00;100.00
15634;BME280;14654;48.898;8.308;2023-07-16T03:55:31;100300.22;;;19.06;100.00
15634;BME280;14654;48.898;8.308;2023-07-16T03:57:57;100297.72;;;19.03;100.00
15634;BME280;14654;48.898;8.308;2023-07-16T04:00:23;100295.88;;;19.05;100.00
15634;BME280;14654;48.898;8.308;2023-07-16T04:02:48;100291.41;;;19.07;100.00
15634;BME280;14654;48.898;8.308;2023-07-16T04:05:13;100300.00;;;19.11;100.00
15634;BME280;14654;48.898;8.308;2023-07-16T04:07:39;100305.19;;;19.12;100.00
15634;BME280;14654;48.898;8.308;2023-07-16T04:10:04;100300.88;;;19.11;100.00
15634;BME280;14654;48.898;8.308;2023-07-16T04:12:30;100306.25;;;19.08;100.00
15634;BME280;14654;48.898;8.308;2023-07-16T04:14:57;100295.75;;;19.08;100.00
15634;BME280;14654;48.898;8.308;2023-07-16T04:17:23;100302.81;;;19.06;100.00
15634;BME280;14654;48.898;8.308;2023-07-16T04:19:49;100315.81;;;19.09;100.00
15634;BME280;14654;48.898;8.308;2023-07-16T04:22:14;100324.53;;;19.10;100.00
15634;BME280;14654;48.898;8.308;2023-07-16T04:24:39;100318.44;;;19.09;100.00
15634;BME280;14654;48.898;8.308;2023-07-16T04:27:05;100317.72;;;19.06;100.00
15634;BME280;14654;48.898;8.308;2023-07-16T04:29:30;100329.91;;;19.07;100.00
15634;BME280;14654;48.898;8.308;2023-07-16T04:31:56;100335.00;;;19.10;100.00
15634;BME280;14654;48.898;8.308;2023-07-16T04:34:21;100335.75;;;19.13;100.00
15634;BME280;14654;48.898;8.308;2023-07-16T04:36:46;100342.53;;;19.17;100.00
15634;BME280;14654;48.898;8.308;2023-07-16T04:39:12;100339.91;;;19.17;100.00
15634;BME280;14654;48.898;8.308;2023-07-16T04:41:37;100345.16;;;19.17;100.00
15634;BME280;14654;48.898;8.308;2023-07-16T04:44:02;100345.97;;;19.19;100.00
15634;BME280;14654;48.898;8.308;2023-07-16T04:46:28;100343.22;;;19.23;100.00
15634;BME280;14654;48.898;8.308;2023-07-16T04:48:55;100343.13;;;19.24;100.00
15634;BME280;14654;48.898;8.308;2023-07-16T04:51:20;100357.75;;;19.30;100.00
15634;BME280;14654;48.898;8.308;2023-07-16T04:53:45;100358.47;;;19.33;100.00
15634;BME280;14654;48.898;8.308;2023-07-16T04:56:14;100366.13;;;19.38;100.00
15634;BME280;14654;48.898;8.308;2023-07-16T04:58:40;100358.19;;;19.40;100.00
15634;BME280;14654;48.898;8.308;2023-07-16T05:01:09;100358.06;;;19.43;100.00
15634;BME280;14654;48.898;8.308;2023-07-16T05:03:36;100353.50;;;19.46;100.00
15634;BME280;14654;48.898;8.308;2023-07-16T05:06:01;100360.59;;;19.44;100.00
15634;BME280;14654;48.898;8.308;2023-07-16T05:08:27;100355.34;;;19.44;100.00
15634;BME280;14654;48.898;8.308;2023-07-16T05:10:52;100356.34;;;19.42;100.00
15634;BME280;14654;48.898;8.308;2023-07-16T05:13:18;100369.41;;;19.43;100.00
15634;BME280;14654;48.898;8.308;2023-07-16T05:15:43;100362.84;;;19.73;100.00
15634;BME280;14654;48.898;8.308;2023-07-16T05:18:09;100362.56;;;19.98;100.00
15634;BME280;14654;48.898;8.308;2023-07-16T05:20:34;100360.88;;;20.34;100.00
15634;BME280;14654;48.898;8.308;2023-07-16T05:22:59;100364.56;;;20.49;100.00
15634;BME280;14654;48.898;8.308;2023-07-16T05:25:25;100361.97;;;20.47;100.00
15634;BME280;14654;48.898;8.308;2023-07-16T05:27:50;100368.41;;;20.41;100.00
15634;BME280;14654;48.898;8.308;2023-07-16T05:30:16;100360.03;;;20.33;100.00
15634;BME280;14654;48.898;8.308;2023-07-16T05:32:41;100362.25;;;20.23;100.00
15634;BME280;14654;48.898;8.308;2023-07-16T05:35:07;100360.97;;;20.13;100.00
15634;BME280;14654;48.898;8.308;2023-07-16T05:37:32;100373.41;;;20.09;100.00
15634;BME280;14654;48.898;8.308;2023-07-16T05:39:57;100373.88;;;20.00;100.00
15634;BME280;14654;48.898;8.308;2023-07-16T05:42:23;100379.13;;;20.00;100.00
15634;BME280;14654;48.898;8.308;2023-07-16T05:44:48;100382.66;;;19.99;100.00
15634;BME280;14654;48.898;8.308;2023-07-16T05:47:13;100373.78;;;20.02;100.00
15634;BME280;14654;48.898;8.308;2023-07-16T05:49:39;100378.03;;;20.04;100.00
15634;BME280;14654;48.898;8.308;2023-07-16T05:52:05;100371.84;;;20.05;100.00
15634;BME280;14654;48.898;8.308;2023-07-16T05:54:30;100381.16;;;20.13;100.00
15634;BME280;14654;48.898;8.308;2023-07-16T05:56:56;100378.81;;;20.25;100.00
15634;BME280;14654;48.898;8.308;2023-07-16T05:59:22;100380.59;;;20.43;100.00
15634;BME280;14654;48.898;8.308;2023-07-16T06:01:47;100375.09;;;21.01;100.00
15634;BME280;14654;48.898;8.308;2023-07-16T06:04:12;100380.91;;;21.91;100.00
15634;BME280;14654;48.898;8.308;2023-07-16T06:06:38;100380.94;;;22.70;100.00
15634;BME280;14654;48.898;8.308;2023-07-16T06:09:04;100382.38;;;23.64;98.58
15634;BME280;14654;48.898;8.308;2023-07-16T06:11:29;100381.09;;;24.41;94.37
15634;BME280;14654;48.898;8.308;2023-07-16T06:13:54;100386.81;;;24.75;88.55
15634;BME280;14654;48.898;8.308;2023-07-16T06:16:20;100379.44;;;25.45;88.30
15634;BME280;14654;48.898;8.308;2023-07-16T06:18:45;100380.06;;;25.61;86.54
15634;BME280;14654;48.898;8.308;2023-07-16T06:21:11;100389.91;;;26.33;84.26
15634;BME280;14654;48.898;8.308;2023-07-16T06:23:36;100379.81;;;26.74;78.64
15634;BME280;14654;48.898;8.308;2023-07-16T06:26:01;100385.81;;;26.89;80.56
15634;BME280;14654;48.898;8.308;2023-07-16T06:28:27;100382.25;;;27.36;79.20
15634;BME280;14654;48.898;8.308;2023-07-16T06:30:52;100386.13;;;27.54;75.16
15634;BME280;14654;48.898;8.308;2023-07-16T06:33:18;100383.03;;;26.91;75.55
15634;BME280;14654;48.898;8.308;2023-07-16T06:35:45;100386.81;;;26.75;75.77
15634;BME280;14654;48.898;8.308;2023-07-16T06:38:11;100397.47;;;26.27;78.40
15634;BME280;14654;48.898;8.308;2023-07-16T06:40:37;100398.25;;;25.92;79.68
15634;BME280;14654;48.898;8.308;2023-07-16T06:43:03;100401.56;;;25.69;79.18
15634;BME280;14654;48.898;8.308;2023-07-16T06:45:28;100409.16;;;25.87;79.86
15634;BME280;14654;48.898;8.308;2023-07-16T06:47:53;100402.63;;;25.41;78.66
15634;BME280;14654;48.898;8.308;2023-07-16T06:50:19;100412.09;;;25.45;79.30
15634;BME280;14654;48.898;8.308;2023-07-16T06:52:44;100396.91;;;25.60;78.94
15634;BME280;14654;48.898;8.308;2023-07-16T06:55:09;100405.38;;;25.26;80.33
15634;BME280;14654;48.898;8.308;2023-07-16T06:57:34;100403.28;;;25.19;80.25
15634;BME280;14654;48.898;8.308;2023-07-16T07:00:00;100410.25;;;24.94;81.69
15634;BME280;14654;48.898;8.308;2023-07-16T07:02:25;100395.44;;;25.17;82.02
15634;BME280;14654;48.898;8.308;2023-07-16T07:04:51;100396.41;;;25.55;80.40
15634;BME280;14654;48.898;8.308;2023-07-16T07:07:17;100404.00;;;26.23;79.03
15634;BME280;14654;48.898;8.308;2023-07-16T07:09:42;100405.19;;;26.78;78.10
15634;BME280;14654;48.898;8.308;2023-07-16T07:12:08;100401.31;;;27.18;77.23
15634;BME280;14654;48.898;8.308;2023-07-16T07:14:33;100403.56;;;27.00;75.37
15634;BME280;14654;48.898;8.308;2023-07-16T07:16:59;100413.41;;;27.22;74.08
15634;BME280;14654;48.898;8.308;2023-07-16T07:19:24;100407.88;;;27.48;73.71
15634;BME280;14654;48.898;8.308;2023-07-16T07:21:49;100410.63;;;27.35;73.80
15634;BME280;14654;48.898;8.308;2023-07-16T07:24:15;100415.44;;;27.30;73.66
15634;BME280;14654;48.898;8.308;2023-07-16T07:26:40;100417.50;;;27.38;72.34
15634;BME280;14654;48.898;8.308;2023-07-16T07:29:05;100420.22;;;27.49;71.88
15634;BME280;14654;48.898;8.308;2023-07-16T07:31:30;100411.72;;;27.21;72.06
15634;BME280;14654;48.898;8.308;2023-07-16T07:33:56;100422.13;;;26.89;73.46
15634;BME280;14654;48.898;8.308;2023-07-16T07:36:23;100430.31;;;26.86;74.32
15634;BME280;14654;48.898;8.308;2023-07-16T07:38:48;100426.59;;;26.88;73.99
15634;BME280;14654;48.898;8.308;2023-07-16T07:41:14;100421.81;;;27.05;72.96
15634;BME280;14654;48.898;8.308;2023-07-16T07:43:39;100427.88;;;26.47;74.45
15634;BME280;14654;48.898;8.308;2023-07-16T07:46:04;100435.31;;;26.17;75.71
15634;BME280;14654;48.898;8.308;2023-07-16T07:48:31;100422.25;;;25.64;76.60
15634;BME280;14654;48.898;8.308;2023-07-16T07:50:56;100428.09;;;25.56;78.05
15634;BME280;14654;48.898;8.308;2023-07-16T07:53:21;100420.56;;;25.63;78.70
15634;BME280;14654;48.898;8.308;2023-07-16T07:55:47;100419.81;;;25.61;78.26
15634;BME280;14654;48.898;8.308;2023-07-16T07:58:12;100422.09;;;25.92;78.92
15634;BME280;14654;48.898;8.308;2023-07-16T08:00:38;100428.13;;;25.94;79.26
15634;BME280;14654;48.898;8.308;2023-07-16T08:03:03;100428.53;;;26.38;78.61
15634;BME280;14654;48.898;8.308;2023-07-16T08:05:29;100424.31;;;26.35;76.15
15634;BME280;14654;48.898;8.308;2023-07-16T08:07:54;100438.63;;;26.57;74.50
15634;BME280;14654;48.898;8.308;2023-07-16T08:10:21;100429.84;;;26.32;75.55
15634;BME280;14654;48.898;8.308;2023-07-16T08:12:46;100432.28;;;26.35;75.00
15634;BME280;14654;48.898;8.308;2023-07-16T08:15:12;100424.31;;;26.35;74.86
15634;BME280;14654;48.898;8.308;2023-07-16T08:17:44;100413.59;;;26.72;73.77
15634;BME280;14654;48.898;8.308;2023-07-16T08:20:11;100414.88;;;26.80;73.96
15634;BME280;14654;48.898;8.308;2023-07-16T08:22:38;100402.88;;;26.74;74.05
15634;BME280;14654;48.898;8.308;2023-07-16T08:25:04;100399.34;;;27.09;73.88
15634;BME280;14654;48.898;8.308;2023-07-16T08:27:30;100407.66;;;26.93;73.75
15634;BME280;14654;48.898;8.308;2023-07-16T08:29:55;100412.31;;;27.25;73.68
15634;BME280;14654;48.898;8.308;2023-07-16T08:32:22;100414.66;;;26.94;74.04
15634;BME280;14654;48.898;8.308;2023-07-16T08:34:48;100408.56;;;27.16;73.39
15634;BME280;14654;48.898;8.308;2023-07-16T08:37:14;100415.13;;;27.58;73.58
15634;BME280;14654;48.898;8.308;2023-07-16T08:39:39;100403.84;;;27.31;72.66
15634;BME280;14654;48.898;8.308;2023-07-16T08:42:06;100403.09;;;27.06;72.76
15634;BME280;14654;48.898;8.308;2023-07-16T08:44:31;100409.66;;;27.36;70.99
15634;BME280;14654;48.898;8.308;2023-07-16T08:46:57;100411.06;;;26.95;72.80
15634;BME280;14654;48.898;8.308;2023-07-16T08:49:23;100423.09;;;26.88;72.52
15634;BME280;14654;48.898;8.308;2023-07-16T08:51:49;100414.69;;;26.70;71.18
15634;BME280;14654;48.898;8.308;2023-07-16T08:54:14;100421.00;;;26.80;71.29
15634;BME280;14654;48.898;8.308;2023-07-16T08:56:45;100415.19;;;27.11;71.12
15634;BME280;14654;48.898;8.308;2023-07-16T08:59:11;100423.66;;;27.27;70.57
15634;BME280;14654;48.898;8.308;2023-07-16T09:01:37;100426.19;;;27.29;70.36
15634;BME280;14654;48.898;8.308;2023-07-16T09:04:03;100427.38;;;27.24;70.68
15634;BME280;14654;48.898;8.308;2023-07-16T09:06:28;100423.53;;;27.06;70.58
15634;BME280;14654;48.898;8.308;2023-07-16T09:08:54;100421.53;;;26.97;70.03
15634;BME280;14654;48.898;8.308;2023-07-16T09:11:20;100419.31;;;26.79;69.25
15634;BME280;14654;48.898;8.308;2023-07-16T09:13:47;100425.19;;;26.71;69.15
15634;BME280;14654;48.898;8.308;2023-07-16T09:16:13;100420.00;;;26.70;69.30
15634;BME280;14654;48.898;8.308;2023-07-16T09:18:41;100415.25;;;26.62;68.79
15634;BME280;14654;48.898;8.308;2023-07-16T09:21:07;100422.25;;;26.63;67.90
15634;BME280;14654;48.898;8.308;2023-07-16T09:23:33;100421.88;;;26.32;68.08
15634;BME280;14654;48.898;8.308;2023-07-16T09:25:59;100423.06;;;25.91;68.87
15634;BME280;14654;48.898;8.308;2023-07-16T09:28:25;100424.66;;;25.80;68.91
15634;BME280;14654;48.898;8.308;2023-07-16T09:30:51;100434.25;;;26.07;68.40
15634;BME280;14654;48.898;8.308;2023-07-16T09:33:21;100427.31;;;26.30;67.75
15634;BME280;14654;48.898;8.308;2023-07-16T09:35:49;100422.59;;;26.58;66.93
15634;BME280;14654;48.898;8.308;2023-07-16T09:38:15;100414.91;;;26.67;67.31
15634;BME280;14654;48.898;8.308;2023-07-16T09:40:41;100415.50;;;26.70;67.00
15634;BME280;14654;48.898;8.308;2023-07-16T09:43:08;100425.25;;;26.83;66.63
15634;BME280;14654;48.898;8.308;2023-07-16T09:45:34;100430.44;;;26.84;65.46
15634;BME280;14654;48.898;8.308;2023-07-16T09:47:59;100424.31;;;26.84;65.85
15634;BME280;14654;48.898;8.308;2023-07-16T09:50:27;100426.66;;;26.75;66.67
15634;BME280;14654;48.898;8.308;2023-07-16T09:52:53;100430.38;;;26.73;66.18
15634;BME280;14654;48.898;8.308;2023-07-16T09:55:22;100438.78;;;26.91;65.13
15634;BME280;14654;48.898;8.308;2023-07-16T09:57:49;100433.41;;;27.04;64.76
15634;BME280;14654;48.898;8.308;2023-07-16T10:00:15;100427.38;;;27.02;64.52
15634;BME280;14654;48.898;8.308;2023-07-16T10:02:42;100428.16;;;26.80;63.91
15634;BME280;14654;48.898;8.308;2023-07-16T10:05:16;100428.31;;;26.89;65.30
15634;BME280;14654;48.898;8.308;2023-07-16T10:07:43;100433.34;;;26.92;65.36
15634;BME280;14654;48.898;8.308;2023-07-16T10:10:10;100434.38;;;27.03;65.11
15634;BME280;14654;48.898;8.308;2023-07-16T10:12:37;100436.91;;;27.16;65.17
15634;BME280;14654;48.898;8.308;2023-07-16T10:15:04;100436.09;;;27.27;65.04
15634;BME280;14654;48.898;8.308;2023-07-16T10:17:30;100436.59;;;27.32;65.37
15634;BME280;14654;48.898;8.308;2023-07-16T10:22:37;100429.72;;;27.41;64.58
15634;BME280;14654;48.898;8.308;2023-07-16T10:27:46;100424.19;;;27.89;63.38
15634;BME280;14654;48.898;8.308;2023-07-16T10:30:11;100423.22;;;27.79;64.19
15634;BME280;14654;48.898;8.308;2023-07-16T10:32:37;100428.88;;;27.97;62.17
15634;BME280;14654;48.898;8.308;2023-07-16T10:35:04;100419.44;;;28.04;62.10
15634;BME280;14654;48.898;8.308;2023-07-16T10:37:30;100429.97;;;28.17;62.51
15634;BME280;14654;48.898;8.308;2023-07-16T10:39:58;100426.28;;;28.29;62.54
15634;BME280;14654;48.898;8.308;2023-07-16T10:42:24;100418.31;;;28.29;61.70
15634;BME280;14654;48.898;8.308;2023-07-16T10:44:51;100418.91;;;28.33;62.09
15634;BME280;14654;48.898;8.308;2023-07-16T10:47:20;100413.53;;;28.44;61.88
15634;BME280;14654;48.898;8.308;2023-07-16T10:49:49;100416.56;;;28.40;61.57
15634;BME280;14654;48.898;8.308;2023-07-16T10:52:14;100421.44;;;28.35;62.04
15634;BME280;14654;48.898;8.308;2023-07-16T10:54:40;100416.75;;;28.27;61.91
15634;BME280;14654;48.898;8.308;2023-07-16T10:57:06;100412.50;;;28.24;62.54
15634;BME280;14654;48.898;8.308;2023-07-16T10:59:31;100406.38;;;28.01;61.92
15634;BME280;14654;48.898;8.308;2023-07-16T11:01:58;100408.84;;;27.81;62.58
15634;BME280;14654;48.898;8.308;2023-07-16T11:04:23;100406.50;;;27.31;62.63
15634;BME280;14654;48.898;8.308;2023-07-16T11:06:51;100410.97;;;27.19;63.70
15634;BME280;14654;48.898;8.308;2023-07-16T11:09:17;100406.34;;;27.10;64.00
15634;BME280;14654;48.898;8.308;2023-07-16T11:11:42;100414.09;;;26.77;64.61
15634;BME280;14654;48.898;8.308;2023-07-16T11:14:08;100414.28;;;26.87;63.81
15634;BME280;14654;48.898;8.308;2023-07-16T11:16:37;100413.78;;;26.82;64.53
15634;BME280;14654;48.898;8.308;2023-07-16T11:19:06;100408.47;;;26.58;65.18
15634;BME280;14654;48.898;8.308;2023-07-16T11:21:36;100413.47;;;26.38;64.58
15634;BME280;14654;48.898;8.308;2023-07-16T11:24:17;100408.91;;;26.16;65.03
15634;BME280;14654;48.898;8.308;2023-07-16T11:26:50;100412.22;;;26.31;66.06
15634;BME280;14654;48.898;8.308;2023-07-16T11:29:15;100407.59;;;26.46;64.24
15634;BME280;14654;48.898;8.308;2023-07-16T11:31:41;100410.13;;;26.47;64.96
15634;BME280;14654;48.898;8.308;2023-07-16T11:36:41;100406.69;;;26.58;64.29
15634;BME280;14654;48.898;8.308;2023-07-16T11:39:07;100417.47;;;26.44;64.51
15634;BME280;14654;48.898;8.308;2023-07-16T11:41:32;100418.84;;;26.50;63.04
15634;BME280;14654;48.898;8.308;2023-07-16T11:44:00;100415.69;;;26.56;62.87
15634;BME280;14654;48.898;8.308;2023-07-16T11:46:30;100410.75;;;26.51;62.37
15634;BME280;14654;48.898;8.308;2023-07-16T11:48:58;100406.84;;;26.68;63.35
15634;BME280;14654;48.898;8.308;2023-07-16T11:51:23;100397.25;;;26.54;62.24
15634;BME280;14654;48.898;8.308;2023-07-16T11:53:48;100408.00;;;26.53;63.06
15634;BME280;14654;48.898;8.308;2023-07-16T11:56:14;100402.91;;;26.50;62.14
15634;BME280;14654;48.898;8.308;2023-07-16T11:58:39;100395.13;;;26.35;63.47
15634;BME280;14654;48.898;8.308;2023-07-16T12:01:04;100394.16;;;26.36;64.14
15634;BME280;14654;48.898;8.308;2023-07-16T12:03:30;100403.75;;;26.26;64.10
15634;BME280;14654;48.898;8.308;2023-07-16T12:05:55;100399.53;;;26.23;63.55
15634;BME280;14654;48.898;8.308;2023-07-16T12:08:20;100402.69;;;26.28;63.79
15634;BME280;14654;48.898;8.308;2023-07-16T12:10:46;100391.94;;;26.54;64.36
15634;BME280;14654;48.898;8.308;2023-07-16T12:13:11;100387.25;;;26.58;63.51
15634;BME280;14654;48.898;8.308;2023-07-16T12:15:36;100395.44;;;26.79;64.03
15634;BME280;14654;48.898;8.308;2023-07-16T12:18:02;100390.84;;;26.81;63.92
15634;BME280;14654;48.898;8.308;2023-07-16T12:20:28;100395.47;;;26.90;63.41
15634;BME280;14654;48.898;8.308;2023-07-16T12:22:53;100385.34;;;26.96;63.41
15634;BME280;14654;48.898;8.308;2023-07-16T12:25:19;100379.69;;;27.23;62.48
15634;BME280;14654;48.898;8.308;2023-07-16T12:27:45;100385.91;;;27.46;62.82
15634;BME280;14654;48.898;8.308;2023-07-16T12:30:10;100381.66;;;27.66;61.93
15634;BME280;14654;48.898;8.308;2023-07-16T12:32:36;100379.59;;;27.36;61.13
15634;BME280;14654;48.898;8.308;2023-07-16T12:35:01;100378.13;;;27.43;62.02
15634;BME280;14654;48.898;8.308;2023-07-16T12:37:28;100365.59;;;27.45;62.64
15634;BME280;14654;48.898;8.308;2023-07-16T12:39:54;100371.13;;;27.42;62.35
15634;BME280;14654;48.898;8.308;2023-07-16T12:42:19;100371.13;;;27.19;62.86
15634;BME280;14654;48.898;8.308;2023-07-16T12:44:44;100368.94;;;27.02;63.53
15634;BME280;14654;48.898;8.308;2023-07-16T12:47:09;100371.00;;;26.98;62.99
15634;BME280;14654;48.898;8.308;2023-07-16T12:49:35;100359.63;;;26.96;63.18
15634;BME280;14654;48.898;8.308;2023-07-16T12:52:00;100360.38;;;26.98;63.93